Lickburg, Kentucky
Current Conditions -  °F | °C
As of 8:07 AM on Thursday 27 Nov 2014 (Local Time) from KJKL Reporting Station
Light Snow Light Snow  
Wind Chill: 25°   Ceiling: 400
Heat Index: 31°   Visibility: 2mi
Dew Point: 29°   Wind: 6mph
Humidity: 92%   Direction: 300°WNW
Pressure: 30.15"   Gusts: NA
Location:  37.7261°N, 83.0786°W
Report Text: KJKL 271307Z AUTO 30005KT 2SM -SN BR BKN004 OVC008 M01/M02 A3015 RMK AO2 P0000 T10061017
Loading
Personal Weather Stations






























Interactive Weather Map New forecast layout! Learn more

10-Day Weather Forecast

Advertisements
Track Severe Weather on mobile